Sunday, November 19, 2017, 11:10 PM EST
Back to Local

KPNE, N.e. Philadelphia Airport

Location: Philadelphia, PA, United States Lat: 40.083
Local Time: 11:10 PM EST ( 4:10 GMT) Lon: -75.017
Time Zone: US/Eastern Elev: 121 ft

Show me the last for .
Show Decoded

2017-11-19 21:54 METAR KPNE 200254Z 27012G20KT 10SM CLR 06/M03 A2985 RMK AO2 SLP107 T00611028
                 53023 =
2017-11-19 20:54 METAR KPNE 200154Z 27011KT 10SM FEW080 07/M03 A2982 RMK AO2 PK WND 29026/0129
                 SLP098 T00671028 =
2017-11-19 19:54 METAR KPNE 200054Z 28011G25KT 10SM FEW049 OVC075 08/M03 A2980 RMK AO2 SLP090
                 T00781028 =
2017-11-19 18:54 METAR KPNE 192354Z 28012G21KT 10SM BKN080 08/M04 A2978 RMK AO2 SLP083 T00781039
                 10128 20078 51038 =
2017-11-19 17:54 METAR KPNE 192254Z 28013G22KT 10SM OVC065 08/M04 A2974 RMK AO2 SLP071 T00831039
                 =
2017-11-19 16:54 METAR KPNE 192154Z 28018G24KT 10SM OVC060 09/M02 A2970 RMK AO2 PK WND 29028/2110
                 SLP058 T00941022 =
2017-11-19 15:54 METAR KPNE 192054Z 28015G26KT 10SM BKN050 10/M02 A2966 RMK AO2 PK WND 27033/2026
                 SLP044 T01001017 53021 =
2017-11-19 14:54 METAR KPNE 191954Z 28020G29KT 10SM BKN050 12/M01 A2962 RMK AO2 PK WND 29032/1942
                 SLP031 T01171011 =
2017-11-19 13:54 METAR KPNE 191854Z 29018G29KT 10SM CLR 12/M01 A2961 RMK AO2 PK WND 30031/1755
                 SLP025 T01171006 =
2017-11-19 12:54 METAR KPNE 191754Z 29022G31KT 10SM BKN050 BKN060 12/M01 A2960 RMK AO2 PK WND
                 29037/1714 SLP023 T01221006 10133 20106 51026 =
2017-11-19 11:54 METAR KPNE 191654Z 30019G34KT 10SM SCT050 13/00 A2958 RMK AO2 PK WND 31035/1602
                 SLP016 T01280000 =
2017-11-19 10:54 METAR KPNE 191554Z 29021G31KT 10SM BKN046 12/01 A2956 RMK AO2 PK WND 28039/1516
                 SLP010 T01220006 =
2017-11-19 09:54 METAR KPNE 191454Z 30023G36KT 10SM SCT044 11/01 A2953 RMK AO2 PK WND 31036/1452
                 SLP997 T01110011 51061 =
2017-11-19 08:54 METAR KPNE 191354Z 29026G36KT 10SM SCT041 11/02 A2948 RMK AO2 PK WND 28036/1347
                 SLP981 T01060017 =
2017-11-19 07:54 METAR KPNE 191254Z 28020G30KT 10SM SCT040 11/03 A2943 RMK AO2 PK WND 28038/1212
                 PRESRR SLP965 T01060028 =
2017-11-19 06:54 METAR KPNE 191154Z 27024G36KT 10SM FEW024 FEW037 OVC080 13/07 A2934 RMK AO2 PK
                 WND 27046/1138 RAE40 PRESRR SLP936 P0001 60030 70035 T01280067 10167 20128 53022
                 =
2017-11-19 06:07 METAR KPNE 191107Z 23014KT 10SM -RA FEW017 BKN050 OVC080 16/13 A2928 RMK AO2
                 P0000 T01560128 =
2017-11-19 05:54 METAR KPNE 191054Z 23013G20KT 7SM -RA SCT015 BKN023 OVC070 16/13 A2928 RMK AO2
                 PK WND 21027/1002 SLP915 P0004 T01560133 =
2017-11-19 04:54 METAR KPNE 190954Z AUTO 22014G21KT 6SM -RA BR BKN016 OVC021 16/13 A2929 RMK AO2
                 RAE0856B16 SLP918 P0007 T01560133 =
2017-11-19 04:06 METAR KPNE 190906Z AUTO 21011G20KT 10SM BKN015 OVC075 16/13 A2929 RMK AO2
                 RAE0856 P0000 T01560133 =
2017-11-19 03:54 METAR KPNE 190854Z AUTO 21014G22KT 10SM -RA BKN013 OVC080 16/13 A2928 RMK AO2 PK
                 WND 21027/0841 SLP914 P0011 60018 T01560133 55027 =
2017-11-19 03:49 METAR KPNE 190849Z AUTO 20012G27KT 7SM -RA BKN015 BKN019 OVC080 16/13 A2927 RMK
                 AO2 PK WND 21027/0841 PRESFR P0011 =
2017-11-19 03:21 METAR KPNE 190821Z AUTO 20009G22KT 6SM -RA BR BKN014 OVC036 15/13 A2932 RMK AO2
                 P0003 T01500133 =
2017-11-19 02:54 METAR KPNE 190754Z AUTO 21010G18KT 6SM -RA SCT016 BKN025 OVC048 16/13 A2934 RMK
                 AO2 SLP934 P0006 T01560128 =
2017-11-19 02:43 METAR KPNE 190743Z AUTO 22012G21KT 6SM -RA BKN022 BKN031 OVC090 16/13 A2935 RMK
                 AO2 P0005 T01560128 =
2017-11-19 01:54 METAR KPNE 190654Z AUTO 22012G24KT 10SM -RA FEW070 OVC100 17/11 A2936 RMK AO2 PK
                 WND 21026/0607 RAB0557E16B46 SLP942 P0001 T01670111 =
2017-11-19 00:54 METAR KPNE 190554Z AUTO 22014G22KT 10SM OVC100 17/11 A2937 RMK AO2 SLP946 60000
                 T01670106 10167 20094 56036 =
2017-11-18 23:54 METAR KPNE 190454Z AUTO 21010G19KT 10SM BKN110 16/10 A2940 RMK AO2 SLP956
                 T01560100 401561011 =

Support USWX by starting your Amazon purchase here.